Time;durP1;ratioP1;P1;durP2;ratioP2;P2;SDS_P1;SDS_P2;PMS_P1;PMS_P2;Temp;Humidity;BMP_temperature;BMP_pressure;BME280_temperature;BME280_humidity;BME280_pressure;Samples;Min_cycle;Max_cycle;Signal;HPM_P1;HPM_P2
2022/01/26 00:00:07;;;;;;;11.50;2.92;;;;;;;6.24;100.00;102353.97;4961720;28;20108;-70
2022/01/26 00:08:06;;;;;;;11.90;3.72;;;;;;;6.30;100.00;102339.47;4951399;28;20042;-68
2022/01/26 00:10:33;;;;;;;10.40;3.30;;;;;;;6.50;100.00;102341.94;4952344;28;20030;-70
2022/01/26 00:12:59;;;;;;;12.68;3.08;;;;;;;6.40;100.00;102342.06;4964521;28;20047;-68
2022/01/26 00:15:25;;;;;;;6.88;2.50;;;;;;;6.32;100.00;102348.03;4961929;28;20057;-70
2022/01/26 00:17:52;;;;;;;14.27;3.83;;;;;;;6.35;100.00;102342.09;4963116;28;20045;-70
2022/01/26 00:20:35;;;;;;;9.75;2.95;;;;;;;6.34;100.00;102329.81;4946210;28;20050;-68
2022/01/26 00:23:31;;;;;;;13.50;3.42;;;;;;;6.28;100.00;102334.41;4959965;28;20464;-70
2022/01/26 00:28:57;;;;;;;;;;;;;;;6.21;100.00;102319.78;4943967;28;20377;-69
2022/01/26 00:39:32;;;;;;;8.32;3.22;;;;;;;6.26;100.00;102331.22;4961496;28;20038;-70
2022/01/26 00:41:59;;;;;;;14.70;3.40;;;;;;;6.35;100.00;102331.38;4953313;28;20534;-70
2022/01/26 00:44:33;;;;;;;5.28;2.30;;;;;;;6.49;100.00;102328.81;4947725;28;20041;-68
2022/01/26 00:46:59;;;;;;;6.78;3.10;;;;;;;6.46;100.00;102321.38;4957021;28;20050;-68
2022/01/26 00:49:25;;;;;;;10.68;3.25;;;;;;;6.20;100.00;102315.50;4951045;28;20535;-69
2022/01/26 00:51:51;;;;;;;11.35;3.45;;;;;;;6.31;100.00;102319.66;4960431;28;20047;-67
2022/01/26 00:54:17;;;;;;;8.23;2.75;;;;;;;6.13;100.00;102326.56;4957477;28;20039;-70
2022/01/26 00:56:42;;;;;;;15.10;3.78;;;;;;;6.10;100.00;102316.41;4943519;28;20043;-68
2022/01/26 00:59:08;;;;;;;5.63;3.17;;;;;;;6.06;100.00;102315.38;4959912;28;20038;-70
2022/01/26 01:01:33;;;;;;;9.20;2.60;;;;;;;6.22;100.00;102308.00;4958381;28;20043;-69
2022/01/26 01:03:59;;;;;;;11.85;3.92;;;;;;;6.26;100.00;102307.16;4944102;28;20378;-68
2022/01/26 01:06:31;;;;;;;7.72;2.45;;;;;;;6.15;100.00;102312.91;4944675;28;20037;-69
2022/01/26 01:08:58;;;;;;;5.93;1.65;;;;;;;6.27;100.00;102303.38;4944456;28;20113;-68
2022/01/26 01:11:24;;;;;;;14.50;3.05;;;;;;;6.21;100.00;102304.53;4955605;28;20869;-70
2022/01/26 01:13:50;;;;;;;7.97;2.72;;;;;;;6.29;100.00;102303.91;4959017;28;20098;-70
2022/01/26 01:16:20;;;;;;;9.35;3.30;;;;;;;6.26;100.00;102309.03;4960397;28;20038;-70
2022/01/26 01:18:55;;;;;;;6.47;2.75;;;;;;;6.30;100.00;102296.69;4948535;28;20512;-68
2022/01/26 01:22:01;;;;;;;12.85;3.38;;;;;;;6.25;100.00;102294.06;4953457;28;20447;-68
2022/01/26 01:27:18;;;;;;;15.10;2.97;;;;;;;6.11;100.00;102299.31;4960647;28;20046;-69
2022/01/26 01:29:55;;;;;;;5.63;2.05;;;;;;;6.25;100.00;102294.06;4959195;28;20038;-68
2022/01/26 01:32:30;;;;;;;10.75;3.05;;;;;;;6.34;100.00;102300.38;4961908;28;20054;-70
2022/01/26 01:34:55;;;;;;;9.80;2.95;;;;;;;6.12;100.00;102306.25;4958485;28;20042;-68
2022/01/26 01:37:21;;;;;;;6.15;1.98;;;;;;;6.12;100.00;102300.09;4958453;28;20038;-69
2022/01/26 01:39:46;;;;;;;9.63;2.78;;;;;;;6.30;100.00;102292.13;4951510;28;20031;-70
2022/01/26 01:42:11;;;;;;;12.07;2.70;;;;;;;6.28;100.00;102293.50;4946127;28;20233;-70
2022/01/26 01:44:38;;;;;;;15.52;3.30;;;;;;;6.10;100.00;102291.53;4951344;28;20136;-69
2022/01/26 01:47:06;;;;;;;7.32;3.03;;;;;;;6.18;100.00;102280.22;4961476;28;20050;-69
2022/01/26 01:49:31;;;;;;;7.28;2.33;;;;;;;6.10;100.00;102273.63;4960388;28;20542;-69
2022/01/26 01:52:01;;;;;;;11.10;3.25;;;;;;;6.04;100.00;102274.75;4958864;28;20137;-69
2022/01/26 01:54:31;;;;;;;13.30;3.10;;;;;;;6.22;100.00;102268.69;4961344;28;20134;-69
2022/01/26 01:56:58;;;;;;;9.00;3.47;;;;;;;6.27;100.00;102270.50;4958045;28;20088;-68
2022/01/26 01:59:29;;;;;;;10.32;3.28;;;;;;;6.13;100.00;102264.25;4959398;28;20961;-70
2022/01/26 02:01:55;;;;;;;10.55;3.05;;;;;;;6.17;100.00;102257.25;4939743;28;20043;-70
2022/01/26 02:04:21;;;;;;;7.78;1.83;;;;;;;6.15;100.00;102256.75;4959470;28;20043;-69
2022/01/26 02:06:46;;;;;;;5.72;1.95;;;;;;;6.29;100.00;102253.09;4958710;28;20067;-69
2022/01/26 02:09:12;;;;;;;11.02;2.53;;;;;;;6.17;100.00;102251.91;4941658;28;20381;-70
2022/01/26 02:11:48;;;;;;;8.07;2.63;;;;;;;6.09;100.00;102252.53;4955596;28;20039;-69
2022/01/26 02:14:23;;;;;;;9.95;3.03;;;;;;;6.25;100.00;102254.72;4946353;28;20038;-68
2022/01/26 02:58:22;;;;;;;6.90;1.95;;;;;;;6.08;100.00;102211.63;4943414;28;20432;-69
2022/01/26 03:03:29;;;;;;;8.00;2.92;;;;;;;6.17;100.00;102223.28;4946401;28;20106;-69
2022/01/26 03:06:06;;;;;;;7.30;3.50;;;;;;;6.07;100.00;102219.94;4957110;28;20507;-68
2022/01/26 03:08:39;;;;;;;14.68;3.20;;;;;;;6.06;100.00;102223.66;4948022;28;20555;-70
2022/01/26 03:11:08;;;;;;;9.32;3.35;;;;;;;6.22;100.00;102228.56;4955282;28;20567;-69
2022/01/26 03:13:38;;;;;;;8.52;2.63;;;;;;;6.03;100.00;102224.25;4961714;28;20043;-69
2022/01/26 03:16:13;;;;;;;9.73;2.53;;;;;;;5.91;100.00;102213.16;4962842;28;20895;-69
2022/01/26 03:21:07;;;;;;;14.18;3.60;;;;;;;5.90;100.00;102200.88;4949937;28;20831;-69
2022/01/26 03:34:33;;;;;;;11.52;2.70;;;;;;;5.86;100.00;102178.47;4946082;28;20043;-70
2022/01/26 03:37:04;;;;;;;13.50;3.45;;;;;;;5.98;100.00;102178.88;4949134;28;20503;-70
2022/01/26 03:39:30;;;;;;;11.70;3.65;;;;;;;5.87;100.00;102169.38;4958408;28;20066;-70
2022/01/26 03:42:05;;;;;;;11.02;3.72;;;;;;;5.83;100.00;102165.63;4943095;28;20074;-70
2022/01/26 03:44:32;;;;;;;7.15;2.70;;;;;;;5.96;100.00;102175.69;4943562;28;20047;-70
2022/01/26 03:46:57;;;;;;;15.45;4.68;;;;;;;5.96;100.00;102171.13;4954119;28;20066;-69
2022/01/26 03:49:23;;;;;;;15.18;3.75;;;;;;;6.02;100.00;102161.97;4945458;28;20750;-70
2022/01/26 03:51:49;;;;;;;8.18;2.83;;;;;;;5.83;100.00;102165.63;4962322;28;20046;-70
2022/01/26 03:54:17;;;;;;;14.23;3.17;;;;;;;6.00;100.00;102168.69;4959098;28;20049;-70
2022/01/26 03:56:43;;;;;;;9.32;3.85;;;;;;;5.85;100.00;102160.84;4944425;28;20043;-70
2022/01/26 03:59:09;;;;;;;10.63;3.30;;;;;;;5.78;100.00;102161.16;4951442;28;20114;-69
2022/01/26 04:01:35;;;;;;;10.70;3.92;;;;;;;5.87;100.00;102172.84;4957889;28;20552;-71
2022/01/26 04:04:21;;;;;;;11.90;4.53;;;;;;;6.08;100.00;102170.72;4957414;28;20034;-71
2022/01/26 04:06:47;;;;;;;8.70;3.75;;;;;;;6.02;100.00;102174.56;4881977;29;20061;-70
2022/01/26 04:09:15;;;;;;;10.00;3.75;;;;;;;6.21;100.00;102184.16;4872956;29;20135;-71
2022/01/26 04:11:44;;;;;;;13.95;3.45;;;;;;;6.01;100.00;102179.09;4866551;29;20049;-70
2022/01/26 04:14:14;;;;;;;14.88;3.88;;;;;;;5.97;100.00;102167.38;4865886;29;20041;-70
2022/01/26 04:16:41;;;;;;;14.75;4.25;;;;;;;5.90;100.00;102179.50;4879442;29;20060;-69
2022/01/26 04:19:07;;;;;;;18.38;4.20;;;;;;;5.93;100.00;102189.63;4882955;29;20456;-70
2022/01/26 04:26:47;;;;;;;9.10;3.53;;;;;;;6.08;100.00;102190.22;4873841;29;20070;-70
2022/01/26 04:29:19;;;;;;;13.30;3.85;;;;;;;5.78;100.00;102179.88;4878236;29;20060;-69
2022/01/26 04:31:45;;;;;;;8.07;3.33;;;;;;;5.96;100.00;102170.34;4870729;29;20052;-69
2022/01/26 04:34:10;;;;;;;12.43;3.67;;;;;;;5.90;100.00;102166.94;4872231;29;20144;-69
2022/01/26 04:36:49;;;;;;;12.50;3.40;;;;;;;5.82;100.00;102174.75;4866396;29;20045;-70
2022/01/26 04:39:19;;;;;;;13.68;3.40;;;;;;;5.91;100.00;102175.72;4865227;29;20045;-70
2022/01/26 04:42:11;;;;;;;5.77;2.67;;;;;;;5.93;100.00;102177.06;4863207;29;20500;-69
2022/01/26 04:44:37;;;;;;;9.75;3.63;;;;;;;5.82;100.00;102169.41;4926737;28;20322;-69
2022/01/26 04:47:23;;;;;;;20.58;4.32;;;;;;;5.91;100.00;102170.38;4947563;28;20563;-69
2022/01/26 04:49:49;;;;;;;12.05;3.58;;;;;;;5.86;100.00;102167.78;4920758;29;20043;-69
2022/01/26 04:52:14;;;;;;;15.35;3.00;;;;;;;5.78;100.00;102165.72;4920693;29;20463;-69
2022/01/26 04:54:39;;;;;;;13.70;4.30;;;;;;;5.84;100.00;102169.94;4922327;29;20204;-69
2022/01/26 04:57:25;;;;;;;10.60;3.38;;;;;;;6.01;100.00;102162.25;4919626;29;20102;-68
2022/01/26 04:59:51;;;;;;;11.10;3.28;;;;;;;6.09;100.00;102159.75;4885916;29;20505;-69
2022/01/26 05:02:16;;;;;;;7.18;2.72;;;;;;;5.98;100.00;102152.91;4874491;29;20063;-70
2022/01/26 05:04:42;;;;;;;13.13;4.78;;;;;;;5.94;100.00;102145.78;4868388;29;20141;-69
2022/01/26 05:07:07;;;;;;;15.18;3.53;;;;;;;5.82;100.00;102148.03;4866078;29;20087;-70
2022/01/26 05:09:33;;;;;;;13.43;4.00;;;;;;;5.76;100.00;102139.28;4874027;29;20182;-69
2022/01/26 05:12:00;;;;;;;8.23;3.15;;;;;;;5.78;100.00;102136.31;4863974;29;20055;-70
2022/01/26 05:14:26;;;;;;;8.35;4.05;;;;;;;5.92;100.00;102139.91;4868196;29;20053;-69
2022/01/26 05:16:51;;;;;;;12.52;3.60;;;;;;;5.83;100.00;102134.41;4853428;29;20830;-70
2022/01/26 05:19:17;;;;;;;8.27;3.47;;;;;;;6.04;100.00;102132.28;4880366;29;20131;-70
2022/01/26 05:21:42;;;;;;;14.43;3.47;;;;;;;6.03;100.00;102139.50;4880467;29;20099;-70
2022/01/26 05:24:10;;;;;;;3.88;2.25;;;;;;;6.02;100.00;102137.91;4865183;29;20049;-70
2022/01/26 05:26:37;;;;;;;10.00;3.20;;;;;;;6.01;100.00;102119.47;4888301;29;20308;-70
2022/01/26 05:29:03;;;;;;;7.32;2.80;;;;;;;5.94;100.00;102106.44;4901054;29;20135;-70
2022/01/26 05:31:28;;;;;;;12.95;2.83;;;;;;;5.98;100.00;102118.16;4887014;29;20170;-70
2022/01/26 05:33:54;;;;;;;12.60;2.53;;;;;;;6.03;100.00;102118.13;4896517;29;20067;-70
2022/01/26 05:36:20;;;;;;;15.88;3.40;;;;;;;5.80;100.00;102118.13;4906043;28;20035;-70
2022/01/26 05:38:45;;;;;;;9.70;3.30;;;;;;;5.67;100.00;102121.47;4939649;28;20106;-70
2022/01/26 05:41:11;;;;;;;11.52;3.85;;;;;;;5.59;100.00;102119.44;4942057;28;20053;-70
2022/01/26 05:43:37;;;;;;;7.95;2.58;;;;;;;5.90;100.00;102123.38;4939752;28;21260;-70
2022/01/26 05:46:07;;;;;;;5.43;1.88;;;;;;;5.79;100.00;102129.91;4941484;28;20046;-70
2022/01/26 05:48:35;;;;;;;7.78;2.83;;;;;;;5.84;100.00;102121.84;4941094;28;20038;-71
2022/01/26 05:51:06;;;;;;;6.03;2.33;;;;;;;5.88;100.00;102114.84;4943849;28;20035;-71
2022/01/26 05:53:35;;;;;;;4.20;2.25;;;;;;;6.02;100.00;102121.09;4953062;28;20492;-71
2022/01/26 05:56:01;;;;;;;7.07;2.08;;;;;;;5.94;100.00;102129.72;4941311;28;20074;-70
2022/01/26 05:58:27;;;;;;;10.13;3.00;;;;;;;5.85;100.00;102121.53;4945397;28;20066;-70
2022/01/26 06:00:53;;;;;;;5.05;2.35;;;;;;;5.93;100.00;102130.81;4939366;28;20129;-71
2022/01/26 06:03:19;;;;;;;5.10;2.08;;;;;;;5.97;100.00;102139.84;4944609;28;20870;-70
2022/01/26 06:05:44;;;;;;;4.22;2.03;;;;;;;5.89;100.00;102133.25;4943090;28;20106;-71
2022/01/26 06:08:09;;;;;;;7.50;2.50;;;;;;;5.90;100.00;102126.84;4957934;28;20126;-70
2022/01/26 06:10:35;;;;;;;7.47;1.88;;;;;;;5.90;100.00;102120.69;4949515;28;20818;-70
2022/01/26 06:13:01;;;;;;;4.68;2.53;;;;;;;5.92;100.00;102113.19;4948516;28;20035;-70
2022/01/26 06:15:27;;;;;;;10.88;2.58;;;;;;;5.65;100.00;102081.69;4948765;28;20039;-70
2022/01/26 06:17:52;;;;;;;6.53;2.25;;;;;;;5.69;100.00;102068.56;4942715;28;20110;-71
2022/01/26 06:20:18;;;;;;;5.57;1.88;;;;;;;5.78;100.00;102097.03;4942628;28;20114;-70
2022/01/26 06:22:43;;;;;;;7.50;2.80;;;;;;;5.72;100.00;102100.84;4943100;28;20062;-70
2022/01/26 06:25:09;;;;;;;10.75;3.30;;;;;;;5.75;100.00;102099.47;4941523;28;20397;-70
2022/01/26 06:27:36;;;;;;;6.43;3.10;;;;;;;5.58;100.00;102097.25;4952428;28;20039;-71
2022/01/26 06:30:06;;;;;;;9.85;2.30;;;;;;;5.62;100.00;102102.81;4961925;28;20030;-72
2022/01/26 06:32:33;;;;;;;9.52;2.67;;;;;;;5.56;100.00;102093.28;4946303;28;20045;-70
2022/01/26 06:34:58;;;;;;;8.88;2.72;;;;;;;5.65;100.00;102083.56;4942840;28;20058;-70
2022/01/26 06:37:24;;;;;;;5.95;2.28;;;;;;;5.55;100.00;102081.00;4942135;28;20062;-70
2022/01/26 06:39:50;;;;;;;8.20;2.65;;;;;;;5.57;100.00;102076.97;4944554;28;20070;-69
2022/01/26 06:42:20;;;;;;;10.95;2.55;;;;;;;5.74;100.00;102077.31;4959696;28;20066;-70
2022/01/26 06:44:56;;;;;;;7.35;2.70;;;;;;;5.70;100.00;102065.59;4950781;28;20079;-70
2022/01/26 06:49:53;;;;;;;10.02;3.08;;;;;;;5.53;100.00;102055.34;4958330;28;20077;-71
2022/01/26 06:52:19;;;;;;;14.02;2.75;;;;;;;5.43;100.00;102065.38;4956491;28;20712;-70
2022/01/26 06:54:45;;;;;;;7.32;2.33;;;;;;;5.59;100.00;102061.47;4948667;28;20504;-71
2022/01/26 06:57:10;;;;;;;8.85;2.35;;;;;;;5.73;100.00;102059.66;4951384;28;20062;-70
2022/01/26 06:59:36;;;;;;;3.65;1.83;;;;;;;5.75;100.00;102072.75;4957110;28;20110;-70
2022/01/26 07:02:02;;;;;;;4.53;2.35;;;;;;;5.67;100.00;102071.50;4948049;28;20639;-70
2022/01/26 07:04:27;;;;;;;7.97;2.88;;;;;;;5.61;100.00;102072.66;4947334;28;20027;-70
2022/01/26 07:06:53;;;;;;;8.50;2.63;;;;;;;5.65;100.00;102062.19;4951066;28;20067;-69
2022/01/26 07:09:19;;;;;;;4.47;2.70;;;;;;;5.84;100.00;102071.06;4948243;28;20046;-69
2022/01/26 07:11:47;;;;;;;10.35;2.65;;;;;;;5.64;100.00;102068.59;4954787;28;20495;-69
2022/01/26 07:14:23;;;;;;;6.50;2.95;;;;;;;5.56;100.00;102072.69;4957910;28;20043;-69
2022/01/26 07:22:13;;;;;;;7.65;3.03;;;;;;;5.71;100.00;102072.50;4950311;28;20031;-70
2022/01/26 07:24:39;;;;;;;11.63;3.75;;;;;;;5.74;100.00;102074.63;4954908;28;20038;-69
2022/01/26 07:27:05;;;;;;;6.53;2.78;;;;;;;5.80;100.00;102070.00;4951385;28;20041;-69
2022/01/26 07:29:32;;;;;;;12.93;2.75;;;;;;;5.71;100.00;102079.75;4950459;28;20113;-69
2022/01/26 07:31:58;;;;;;;5.25;2.60;;;;;;;5.84;100.00;102071.06;4955619;28;20109;-69
2022/01/26 07:34:24;;;;;;;13.32;3.40;;;;;;;5.72;100.00;102071.44;4956910;28;20093;-69
2022/01/26 07:36:52;;;;;;;9.27;3.35;;;;;;;5.76;100.00;102074.34;4939731;28;20081;-69
2022/01/26 07:39:29;;;;;;;8.07;2.78;;;;;;;5.90;100.00;102084.06;4953433;28;20410;-70
2022/01/26 07:41:54;;;;;;;8.77;2.72;;;;;;;5.70;100.00;102086.16;4955359;28;20106;-69
2022/01/26 07:44:19;;;;;;;8.63;3.75;;;;;;;5.81;100.00;102109.00;4956837;28;20430;-69
2022/01/26 07:46:45;;;;;;;6.45;2.95;;;;;;;5.80;100.00;102116.25;4946508;28;20039;-69
2022/01/26 07:49:10;;;;;;;11.27;2.78;;;;;;;5.68;100.00;102117.72;4945485;28;20070;-69
2022/01/26 07:51:36;;;;;;;11.63;3.22;;;;;;;5.54;100.00;102114.94;4948877;28;20050;-69
2022/01/26 07:54:01;;;;;;;6.68;2.83;;;;;;;5.65;100.00;102120.97;4950833;28;20058;-69
2022/01/26 07:56:27;;;;;;;8.75;2.83;;;;;;;5.64;100.00;102125.50;4956454;28;20062;-69
2022/01/26 07:58:52;;;;;;;14.23;4.07;;;;;;;5.56;100.00;102128.00;4956324;28;20054;-68
2022/01/26 08:01:18;;;;;;;7.63;2.60;;;;;;;5.47;100.00;102127.84;4958569;28;20034;-68
2022/01/26 08:03:43;;;;;;;9.13;2.92;;;;;;;5.67;100.00;102119.59;4956459;28;20030;-69
2022/01/26 08:06:14;;;;;;;3.45;2.17;;;;;;;5.81;100.00;102111.66;4957793;28;20062;-69
2022/01/26 08:08:39;;;;;;;10.93;3.20;;;;;;;5.67;100.00;102111.56;4954443;28;20039;-68
2022/01/26 08:11:05;;;;;;;7.18;2.00;;;;;;;5.65;100.00;102110.28;4956956;28;20030;-68
2022/01/26 08:13:30;;;;;;;10.43;3.15;;;;;;;5.81;100.00;102109.81;4949295;28;20070;-68
2022/01/26 08:15:57;;;;;;;7.40;2.65;;;;;;;5.68;100.00;102101.69;4952620;28;20050;-68
2022/01/26 08:18:26;;;;;;;9.30;3.17;;;;;;;5.60;100.00;102100.44;4956363;28;20476;-69
2022/01/26 08:20:52;;;;;;;8.50;3.55;;;;;;;5.57;100.00;102092.22;4944085;28;20034;-70
2022/01/26 08:23:21;;;;;;;7.65;3.17;;;;;;;5.58;100.00;102091.91;4951819;28;20039;-70
2022/01/26 08:25:50;;;;;;;9.55;3.42;;;;;;;5.53;100.00;102097.34;4949587;28;20042;-70
2022/01/26 08:28:23;;;;;;;11.45;2.95;;;;;;;5.36;100.00;102087.09;4952863;28;20042;-69
2022/01/26 08:30:48;;;;;;;7.35;2.80;;;;;;;5.35;100.00;102082.03;4947747;28;20518;-69
2022/01/26 08:33:14;;;;;;;7.07;3.17;;;;;;;5.36;100.00;102087.09;4953695;28;20031;-68
2022/01/26 08:35:41;;;;;;;11.20;3.55;;;;;;;5.45;100.00;102087.28;4951284;28;20447;-69
2022/01/26 08:38:06;;;;;;;7.40;3.05;;;;;;;5.32;100.00;102091.41;4952609;28;20039;-70
2022/01/26 08:40:33;;;;;;;14.00;3.08;;;;;;;5.46;100.00;102091.50;4956227;28;20402;-70
2022/01/26 08:42:59;;;;;;;17.23;4.47;;;;;;;5.44;100.00;102083.00;4955982;28;20035;-69
2022/01/26 08:45:24;;;;;;;10.13;4.28;;;;;;;5.36;100.00;102079.06;4964341;28;20045;-69
2022/01/26 08:47:50;;;;;;;8.23;3.03;;;;;;;5.37;100.00;102078.00;4958244;28;20041;-69
2022/01/26 08:50:16;;;;;;;6.80;2.72;;;;;;;5.51;100.00;102083.47;4959262;28;20066;-69
2022/01/26 08:52:41;;;;;;;11.50;4.00;;;;;;;5.34;100.00;102081.22;4960575;28;20133;-70
2022/01/26 08:55:07;;;;;;;10.48;3.50;;;;;;;5.47;100.00;102082.44;4961753;28;20631;-69
2022/01/26 08:57:33;;;;;;;13.20;4.20;;;;;;;5.43;100.00;102086.75;4957122;28;20082;-69
2022/01/26 08:59:59;;;;;;;11.07;3.38;;;;;;;5.40;100.00;102088.13;4955681;28;20034;-69
2022/01/26 09:02:25;;;;;;;15.75;3.42;;;;;;;5.44;100.00;102091.81;4954884;28;20122;-68
2022/01/26 09:04:51;;;;;;;13.35;4.43;;;;;;;5.44;100.00;102091.81;4958985;28;20153;-69
2022/01/26 09:07:19;;;;;;;14.02;3.75;;;;;;;5.44;100.00;102107.03;4945964;28;20073;-69
2022/01/26 09:09:45;;;;;;;8.68;3.65;;;;;;;5.47;100.00;102103.81;4954780;28;20776;-69
2022/01/26 09:12:14;;;;;;;8.23;3.75;;;;;;;5.59;100.00;102112.22;4957288;28;20063;-69
2022/01/26 09:14:40;;;;;;;13.63;3.08;;;;;;;5.49;100.00;102123.81;4958199;28;20031;-69
2022/01/26 09:17:07;;;;;;;6.45;3.00;;;;;;;5.46;100.00;102119.03;4954429;28;20042;-68
2022/01/26 09:19:34;;;;;;;16.77;4.55;;;;;;;5.43;100.00;102111.59;4956584;28;20907;-70
2022/01/26 09:22:06;;;;;;;13.63;3.33;;;;;;;5.70;100.00;102107.53;4952346;28;20043;-70
2022/01/26 09:24:33;;;;;;;8.35;3.35;;;;;;;5.53;100.00;102114.13;4957305;28;20053;-69
2022/01/26 09:27:00;;;;;;;7.68;2.80;;;;;;;5.44;100.00;102115.84;4952822;28;20142;-69
2022/01/26 09:29:26;;;;;;;14.70;3.22;;;;;;;5.35;100.00;102109.53;4954435;28;20049;-69
2022/01/26 09:31:52;;;;;;;10.63;4.53;;;;;;;5.25;100.00;102116.84;4959687;28;20042;-69
2022/01/26 09:34:20;;;;;;;13.68;5.30;;;;;;;5.36;100.00;102116.47;4954607;28;20041;-69
2022/01/26 09:36:46;;;;;;;13.68;3.55;;;;;;;5.48;100.00;102121.41;4956430;28;20511;-70
2022/01/26 09:39:13;;;;;;;11.57;3.10;;;;;;;5.57;100.00;102133.09;4956400;28;20130;-70
2022/01/26 09:41:40;;;;;;;7.65;3.03;;;;;;;5.60;100.00;102127.16;4959666;28;20110;-70
2022/01/26 09:44:06;;;;;;;7.95;3.80;;;;;;;5.42;100.00;102131.34;4956682;28;20042;-69
2022/01/26 09:46:33;;;;;;;10.65;3.63;;;;;;;5.65;100.00;102131.66;4959221;28;20373;-70
2022/01/26 09:49:00;;;;;;;11.77;3.95;;;;;;;5.42;100.00;102126.00;4955171;28;20047;-69
2022/01/26 09:51:25;;;;;;;8.10;3.40;;;;;;;5.40;100.00;102124.72;4957627;28;20078;-69
2022/01/26 09:54:09;;;;;;;11.65;3.13;;;;;;;5.56;100.00;102126.13;4953695;28;20066;-69
2022/01/26 09:56:34;;;;;;;16.40;3.92;;;;;;;5.45;100.00;102114.78;4954195;28;20026;-70
2022/01/26 09:59:00;;;;;;;12.88;3.55;;;;;;;5.63;100.00;102118.59;4956355;28;20553;-70
2022/01/26 10:01:25;;;;;;;11.15;4.45;;;;;;;5.55;100.00;102119.22;4956970;28;20042;-69
2022/01/26 10:03:52;;;;;;;20.92;5.07;;;;;;;5.49;100.00;102123.03;4960465;28;20105;-70
2022/01/26 10:06:26;;;;;;;14.50;4.60;;;;;;;5.34;100.00;102115.94;4956412;28;20045;-69
2022/01/26 10:19:01;;;;;;;14.95;4.35;;;;;;;5.29;100.00;102096.53;4949957;28;20407;-70
2022/01/26 10:21:27;;;;;;;14.02;3.95;;;;;;;5.16;100.00;102079.31;4948927;28;20038;-69
2022/01/26 10:23:56;;;;;;;15.02;4.50;;;;;;;5.27;100.00;102090.66;4951865;28;20116;-69
2022/01/26 10:26:22;;;;;;;12.45;4.82;;;;;;;5.33;100.00;102105.56;4955280;28;20559;-71
2022/01/26 10:28:54;;;;;;;15.38;5.05;;;;;;;5.26;100.00;102103.25;4953498;28;20097;-69
2022/01/26 10:31:31;;;;;;;17.42;3.88;;;;;;;5.38;100.00;102098.28;4954846;28;20026;-70
2022/01/26 10:34:06;;;;;;;15.73;4.22;;;;;;;5.35;100.00;102098.88;4956287;28;20137;-69
2022/01/26 10:36:39;;;;;;;10.52;3.78;;;;;;;5.41;100.00;102110.28;4947979;28;20037;-68
2022/01/26 10:39:08;;;;;;;16.27;5.28;;;;;;;5.40;100.00;102098.78;4953670;28;20380;-70
2022/01/26 10:41:35;;;;;;;20.17;4.53;;;;;;;5.39;100.00;102099.88;4953482;28;20610;-68
2022/01/26 10:44:02;;;;;;;15.27;4.30;;;;;;;5.46;100.00;102108.34;4957089;28;20070;-69
2022/01/26 10:46:41;;;;;;;14.95;4.05;;;;;;;5.58;100.00;102107.94;4953966;28;20047;-69
2022/01/26 10:49:31;;;;;;;14.73;4.38;;;;;;;5.40;100.00;102104.13;4956451;28;20050;-71
2022/01/26 10:52:02;;;;;;;11.32;4.28;;;;;;;5.56;100.00;102096.75;4956891;28;20058;-69
2022/01/26 10:54:37;;;;;;;15.95;5.80;;;;;;;5.45;100.00;102098.75;4959128;28;20615;-69
2022/01/26 10:57:05;;;;;;;15.45;4.38;;;;;;;5.70;100.00;102083.50;4956206;28;20039;-70
2022/01/26 10:59:36;;;;;;;14.18;4.18;;;;;;;5.67;100.00;102089.41;4953378;28;20173;-69
2022/01/26 11:02:07;;;;;;;12.52;4.97;;;;;;;5.67;100.00;102095.53;4955167;28;20042;-70
2022/01/26 11:04:34;;;;;;;9.02;2.92;;;;;;;5.53;100.00;102099.19;4956727;28;20412;-71
2022/01/26 11:07:02;;;;;;;18.00;5.43;;;;;;;5.64;100.00;102089.97;4959150;28;20045;-71
2022/01/26 11:09:31;;;;;;;12.65;4.15;;;;;;;5.66;100.00;102080.59;4959208;28;20506;-69
2022/01/26 11:12:05;;;;;;;7.97;2.90;;;;;;;5.56;100.00;102090.59;4959224;28;20544;-71
2022/01/26 11:14:39;;;;;;;17.02;4.63;;;;;;;5.60;100.00;102096.97;4957791;28;20046;-70
2022/01/26 11:17:05;;;;;;;7.30;2.78;;;;;;;5.52;100.00;102093.06;4956520;28;20035;-71
2022/01/26 11:19:45;;;;;;;13.25;3.83;;;;;;;5.44;100.00;102093.69;4956521;28;20050;-70
2022/01/26 11:22:13;;;;;;;10.63;4.15;;;;;;;5.65;100.00;102083.56;4957647;28;20039;-70
2022/01/26 11:24:47;;;;;;;20.63;4.35;;;;;;;5.48;100.00;102074.13;4946688;28;20106;-70
2022/01/26 11:27:15;;;;;;;13.23;3.88;;;;;;;5.34;100.00;102067.88;4953747;28;20061;-71
2022/01/26 11:29:45;;;;;;;7.35;4.13;;;;;;;5.34;100.00;102065.22;4956594;28;20042;-70
2022/01/26 11:32:40;;;;;;;12.38;5.22;;;;;;;5.17;100.00;102064.06;4952418;28;20062;-71
2022/01/26 11:35:08;;;;;;;13.85;4.60;;;;;;;5.22;100.00;102062.16;4963088;28;20050;-70
2022/01/26 11:37:42;;;;;;;13.00;4.15;;;;;;;5.20;100.00;102055.50;4961342;28;20042;-70
2022/01/26 11:45:21;;;;;;;12.50;4.72;;;;;;;5.41;100.00;102016.81;4961693;28;20495;-70
2022/01/26 11:48:23;;;;;;;11.68;4.28;;;;;;;5.26;100.00;102012.47;4958870;28;20065;-71
2022/01/26 11:50:59;;;;;;;16.90;4.78;;;;;;;5.25;100.00;101989.50;4951903;28;20042;-70
2022/01/26 11:53:25;;;;;;;18.98;5.53;;;;;;;5.11;100.00;101988.59;4955194;28;20050;-70
2022/01/26 11:55:58;;;;;;;21.02;3.95;;;;;;;5.14;100.00;101988.03;4959120;28;20086;-70
2022/01/26 11:58:31;;;;;;;13.30;4.53;;;;;;;5.15;100.00;101988.84;4958630;28;20031;-71
2022/01/26 12:03:56;;;;;;;17.80;4.13;;;;;;;5.20;100.00;101965.53;4950648;28;20129;-71
2022/01/26 12:06:39;;;;;;;15.68;4.85;;;;;;;5.37;100.00;101973.06;4952686;28;20074;-70
2022/01/26 12:09:07;;;;;;;16.13;3.75;;;;;;;5.28;100.00;101977.44;4960601;28;20042;-70
2022/01/26 12:11:33;;;;;;;15.43;4.30;;;;;;;5.28;100.00;101974.78;4961944;28;20034;-70
2022/01/26 12:14:00;;;;;;;21.33;4.55;;;;;;;5.44;100.00;101981.50;4961477;28;20411;-69
2022/01/26 12:16:48;;;;;;;15.10;4.53;;;;;;;5.40;100.00;101975.16;4955732;28;20155;-71
2022/01/26 12:38:11;;;;;;;9.35;3.45;;;;;;;5.25;100.00;101967.31;4957627;28;20035;-70
2022/01/26 12:43:39;;;;;;;12.63;3.45;;;;;;;5.26;100.00;101959.06;4958004;28;20042;-71
2022/01/26 12:46:08;;;;;;;19.55;4.80;;;;;;;5.38;100.00;101956.72;4958934;28;20128;-70
2022/01/26 12:48:40;;;;;;;8.65;4.15;;;;;;;5.40;100.00;101957.25;4945832;28;20035;-70
2022/01/26 12:51:08;;;;;;;17.75;4.80;;;;;;;5.30;100.00;101959.28;4941456;28;20043;-70
2022/01/26 12:53:38;;;;;;;13.40;3.65;;;;;;;5.40;100.00;101954.56;4949119;28;20034;-69
2022/01/26 12:56:07;;;;;;;13.85;3.75;;;;;;;5.25;100.00;101944.09;4946925;28;20485;-70
2022/01/26 12:58:35;;;;;;;17.38;5.07;;;;;;;5.31;100.00;101942.97;4954020;28;20034;-70
2022/01/26 13:01:04;;;;;;;12.55;4.78;;;;;;;5.29;100.00;101931.75;4945040;28;20031;-70
2022/01/26 13:03:32;;;;;;;19.42;4.28;;;;;;;5.33;100.00;101943.47;4947654;28;20046;-71
2022/01/26 13:06:10;;;;;;;9.07;3.33;;;;;;;5.37;100.00;101933.78;4947358;28;20035;-70
2022/01/26 13:08:43;;;;;;;11.10;4.15;;;;;;;5.20;100.00;101933.50;4961994;28;20513;-70
2022/01/26 13:11:08;;;;;;;17.50;4.95;;;;;;;5.16;100.00;101926.34;4948266;28;20153;-72
2022/01/26 13:13:34;;;;;;;17.33;5.82;;;;;;;5.07;100.00;101928.84;4951444;28;20117;-71
2022/01/26 13:16:09;;;;;;;26.20;5.43;;;;;;;5.28;100.00;101924.81;4956156;28;20033;-72
2022/01/26 13:21:37;;;;;;;9.90;4.25;;;;;;;5.23;100.00;101922.22;4947737;28;20126;-70
2022/01/26 13:24:23;;;;;;;11.05;4.13;;;;;;;5.35;100.00;101913.78;4954215;28;20668;-70
2022/01/26 13:27:02;;;;;;;20.38;4.35;;;;;;;5.30;100.00;101925.31;4948451;28;20416;-70
2022/01/26 13:30:16;;;;;;;8.30;3.88;;;;;;;5.20;100.00;101922.00;4950626;28;20039;-70
2022/01/26 13:37:45;;;;;;;18.00;4.32;;;;;;;5.26;100.00;101919.00;4946569;28;20154;-70
2022/01/26 13:46:38;;;;;;;23.58;3.58;;;;;;;5.56;100.00;101911.63;4955675;28;20774;-70
2022/01/26 13:49:13;;;;;;;19.38;4.80;;;;;;;5.38;100.00;101914.00;4955073;28;20045;-71
2022/01/26 13:54:47;;;;;;;12.02;3.67;;;;;;;5.48;100.00;101916.53;4949023;28;20027;-71
2022/01/26 14:02:14;;;;;;;7.75;3.22;;;;;;;5.34;100.00;101901.53;4946797;28;20568;-71